createdAt,value
2018-05-13T00:01:13.071Z,101361.19
2018-05-13T00:03:40.619Z,101359.88
2018-05-13T00:06:08.842Z,101367.23
2018-05-13T00:08:37.270Z,101372.14
2018-05-13T00:11:05.379Z,101374.19
2018-05-13T00:13:32.923Z,101372.55
2018-05-13T00:16:01.036Z,101369.33
2018-05-13T00:18:29.462Z,101373.50
2018-05-13T00:20:57.784Z,101369.66
2018-05-13T00:23:25.327Z,101373.48
2018-05-13T00:25:53.734Z,101370.70
2018-05-13T00:28:21.265Z,101366.44
2018-05-13T00:30:48.821Z,101374.10
2018-05-13T00:33:17.086Z,101368.73
2018-05-13T00:35:45.445Z,101365.39
2018-05-13T00:38:12.988Z,101365.00
2018-05-13T00:40:40.637Z,101365.08
2018-05-13T00:43:08.591Z,101369.94
2018-05-13T00:45:36.131Z,101372.95
2018-05-13T00:48:04.640Z,101377.91
2018-05-13T00:50:32.648Z,101372.22
2018-05-13T00:53:00.246Z,101371.17
2018-05-13T00:55:28.748Z,101373.05
2018-05-13T00:57:56.315Z,101376.34
2018-05-13T01:00:23.888Z,101374.16
2018-05-13T01:02:51.486Z,101379.95
2018-05-13T01:05:19.503Z,101381.19
2018-05-13T01:07:48.915Z,101382.31
2018-05-13T01:10:16.975Z,101382.91
2018-05-13T01:12:44.512Z,101387.34
2018-05-13T01:15:12.642Z,101388.45
2018-05-13T01:17:40.783Z,101387.00
2018-05-13T01:20:08.372Z,101392.05
2018-05-13T01:22:35.923Z,101396.09
2018-05-13T01:25:03.520Z,101395.14
2018-05-13T01:27:31.513Z,101392.33
2018-05-13T01:29:59.155Z,101391.89
2018-05-13T01:32:26.695Z,101389.72
2018-05-13T01:34:54.982Z,101393.13
2018-05-13T01:37:22.514Z,101395.06
2018-05-13T01:39:50.442Z,101398.66
2018-05-13T01:42:18.014Z,101395.21
2018-05-13T01:44:45.562Z,101398.59
2018-05-13T01:47:14.149Z,101391.96
2018-05-13T01:49:41.688Z,101395.45
2018-05-13T01:52:09.228Z,101396.77
2018-05-13T01:54:36.802Z,101399.15
2018-05-13T01:57:04.433Z,101408.02
2018-05-13T01:59:31.998Z,101407.77
2018-05-13T02:02:01.043Z,101401.34
2018-05-13T02:04:28.601Z,101404.38
2018-05-13T02:06:56.639Z,101400.52
2018-05-13T02:09:24.726Z,101405.98
2018-05-13T02:11:52.279Z,101404.09
2018-05-13T02:14:21.264Z,101401.92
2018-05-13T02:16:48.804Z,101404.19
2018-05-13T02:19:17.269Z,101406.47
2018-05-13T02:21:44.809Z,101402.75
2018-05-13T02:24:12.353Z,101403.78
2018-05-13T02:26:40.565Z,101404.52
2018-05-13T02:29:08.111Z,101401.73
2018-05-13T02:31:35.651Z,101405.63
2018-05-13T02:34:03.769Z,101401.06
2018-05-13T02:36:33.078Z,101399.48
2018-05-13T02:39:00.693Z,101402.08
2018-05-13T02:41:28.266Z,101394.02
2018-05-13T02:43:56.494Z,101406.30
2018-05-13T02:46:24.774Z,101404.25
2018-05-13T02:48:52.381Z,101406.30
2018-05-13T02:51:19.910Z,101405.79
2018-05-13T02:53:47.501Z,101402.47
2018-05-13T02:56:15.052Z,101399.06
2018-05-13T02:58:42.623Z,101404.31
2018-05-13T03:01:10.192Z,101404.80
2018-05-13T03:03:37.731Z,101400.33
2018-05-13T03:06:05.923Z,101405.16
2018-05-13T03:08:34.519Z,101402.81
2018-05-13T03:11:02.721Z,101400.63
2018-05-13T03:13:30.667Z,101390.97
2018-05-13T03:15:59.098Z,101398.26
2018-05-13T03:18:27.111Z,101393.70
2018-05-13T03:20:54.671Z,101400.47
2018-05-13T03:23:22.210Z,101399.70
2018-05-13T03:25:49.794Z,101400.66
2018-05-13T03:28:17.934Z,101399.86
2018-05-13T03:30:46.187Z,101403.09
2018-05-13T03:33:14.209Z,101403.91
2018-05-13T03:35:42.372Z,101402.45
2018-05-13T03:38:09.917Z,101399.11
2018-05-13T03:40:37.454Z,101396.43
2018-05-13T03:43:06.259Z,101394.02
2018-05-13T03:45:33.793Z,101395.25
2018-05-13T03:48:03.177Z,101399.07
2018-05-13T03:50:31.609Z,101392.27
2018-05-13T03:53:00.333Z,101392.83
2018-05-13T03:55:27.903Z,101392.40
2018-05-13T03:57:55.519Z,101392.36
2018-05-13T04:00:23.063Z,101392.71
2018-05-13T04:02:50.775Z,101390.31
2018-05-13T04:05:19.441Z,101392.31
2018-05-13T04:11:20.540Z,101393.06
2018-05-13T04:14:00.927Z,101394.59
2018-05-13T04:16:28.458Z,101396.64
2018-05-13T04:18:56.526Z,101402.98
2018-05-13T04:21:24.070Z,101407.42
2018-05-13T04:23:51.619Z,101408.41
2018-05-13T04:26:19.204Z,101403.70
2018-05-13T04:28:47.957Z,101407.88
2018-05-13T04:31:16.960Z,101408.33
2018-05-13T04:33:45.363Z,101410.41
2018-05-13T04:36:12.903Z,101411.19
2018-05-13T04:38:40.438Z,101408.38
2018-05-13T04:41:08.010Z,101410.96
2018-05-13T04:43:36.089Z,101406.34
2018-05-13T04:46:03.638Z,101405.51
2018-05-13T04:48:32.122Z,101411.44
2018-05-13T04:50:59.708Z,101409.00
2018-05-13T04:53:27.299Z,101408.89
2018-05-13T04:55:54.865Z,101408.11
2018-05-13T04:58:22.393Z,101407.88
2018-05-13T05:00:50.038Z,101411.52
2018-05-13T05:03:17.893Z,101404.88
2018-05-13T05:05:46.164Z,101395.17
2018-05-13T05:08:14.443Z,101393.78
2018-05-13T05:10:43.036Z,101394.67
2018-05-13T05:13:10.563Z,101396.83
2018-05-13T05:15:38.651Z,101395.30
2018-05-13T05:18:06.768Z,101395.22
2018-05-13T05:20:34.312Z,101398.70
2018-05-13T05:23:02.082Z,101399.37
2018-05-13T05:25:29.842Z,101405.67
2018-05-13T05:27:58.378Z,101405.80
2018-05-13T05:30:26.315Z,101397.53
2018-05-13T05:32:53.847Z,101405.97
2018-05-13T05:35:21.976Z,101401.58
2018-05-13T05:37:49.527Z,101405.83
2018-05-13T05:40:17.061Z,101400.14
2018-05-13T05:42:44.625Z,101402.22
2018-05-13T05:45:12.611Z,101406.91
2018-05-13T05:47:40.687Z,101404.29
2018-05-13T05:50:08.231Z,101406.97
2018-05-13T05:52:35.755Z,101415.06
2018-05-13T05:55:03.416Z,101405.09
2018-05-13T05:57:31.766Z,101404.84
2018-05-13T05:59:59.303Z,101405.47
2018-05-13T06:02:26.867Z,101409.03
2018-05-13T06:04:54.937Z,101407.52
2018-05-13T06:07:22.481Z,101409.15
2018-05-13T06:09:50.483Z,101407.91
2018-05-13T06:12:18.074Z,101416.23
2018-05-13T06:14:46.194Z,101410.06
2018-05-13T06:17:13.791Z,101410.51
2018-05-13T06:19:43.157Z,101403.00
2018-05-13T06:22:10.714Z,101402.66
2018-05-13T06:24:38.311Z,101406.67
2018-05-13T06:27:06.723Z,101404.13
2018-05-13T06:29:34.255Z,101404.19
2018-05-13T06:32:02.044Z,101403.41
2018-05-13T06:34:31.098Z,101409.09
2018-05-13T06:36:58.631Z,101408.56
2018-05-13T06:39:26.162Z,101403.68
2018-05-13T06:41:53.904Z,101402.11
2018-05-13T06:44:22.180Z,101400.34
2018-05-13T06:46:50.534Z,101397.84
2018-05-13T06:49:18.077Z,101401.38
2018-05-13T06:51:45.614Z,101402.87
2018-05-13T06:54:13.181Z,101399.81
2018-05-13T06:56:40.722Z,101397.00
2018-05-13T06:59:08.254Z,101401.08
2018-05-13T07:01:36.607Z,101403.10
2018-05-13T07:04:04.188Z,101404.34
2018-05-13T07:06:32.890Z,101401.30
2018-05-13T07:09:01.186Z,101403.86
2018-05-13T07:11:29.159Z,101406.05
2018-05-13T07:13:57.403Z,101405.64
2018-05-13T07:16:25.015Z,101406.05
2018-05-13T07:18:53.243Z,101409.48
2018-05-13T07:21:20.830Z,101410.25
2018-05-13T07:23:48.378Z,101412.30
2018-05-13T07:26:16.584Z,101414.97
2018-05-13T07:28:44.483Z,101414.02
2018-05-13T07:31:12.013Z,101413.13
2018-05-13T07:33:40.302Z,101421.09
2018-05-13T07:36:07.831Z,101414.36
2018-05-13T07:38:35.363Z,101411.73
2018-05-13T07:41:03.135Z,101416.41
2018-05-13T07:43:31.616Z,101410.11
2018-05-13T07:45:59.122Z,101418.91
2018-05-13T07:48:27.210Z,101424.33
2018-05-13T07:50:55.037Z,101415.53
2018-05-13T07:53:22.505Z,101422.91
2018-05-13T07:55:50.065Z,101416.19
2018-05-13T07:58:17.604Z,101415.41
2018-05-13T08:00:45.168Z,101410.22
2018-05-13T08:03:12.760Z,101407.80
2018-05-13T08:05:40.974Z,101418.00
2018-05-13T08:08:09.416Z,101422.10
2018-05-13T08:10:37.436Z,101423.53
2018-05-13T08:13:04.978Z,101419.44
2018-05-13T08:15:33.812Z,101422.75
2018-05-13T08:18:01.800Z,101422.98
2018-05-13T08:20:29.377Z,101422.81
2018-05-13T08:22:57.770Z,101414.78
2018-05-13T08:25:25.280Z,101422.41
2018-05-13T08:27:53.498Z,101418.95
2018-05-13T08:30:21.052Z,101423.72
2018-05-13T08:32:48.631Z,101414.61
2018-05-13T08:35:16.777Z,101416.73
2018-05-13T08:37:44.318Z,101424.47
2018-05-13T08:40:11.873Z,101421.52
2018-05-13T08:42:39.451Z,101425.62
2018-05-13T08:45:07.702Z,101419.40
2018-05-13T08:47:37.063Z,101422.67
2018-05-13T08:50:04.899Z,101422.07
2018-05-13T08:52:32.485Z,101418.38
2018-05-13T08:55:00.064Z,101423.94
2018-05-13T08:57:27.595Z,101425.31
2018-05-13T08:59:55.167Z,101421.30
2018-05-13T09:02:22.894Z,101411.41
2018-05-13T09:04:51.250Z,101413.36
2018-05-13T09:07:19.522Z,101414.91
2018-05-13T09:09:47.863Z,101416.01
2018-05-13T09:12:15.397Z,101415.08
2018-05-13T09:14:44.164Z,101412.63
2018-05-13T09:17:11.715Z,101413.69
2018-05-13T09:19:39.794Z,101410.37
2018-05-13T09:22:07.345Z,101411.81
2018-05-13T09:24:35.220Z,101410.28
2018-05-13T09:27:04.739Z,101407.14
2018-05-13T09:29:32.317Z,101407.95
2018-05-13T09:31:59.842Z,101409.08
2018-05-13T09:34:28.027Z,101417.67
2018-05-13T09:36:55.590Z,101413.11
2018-05-13T09:39:23.204Z,101421.23
2018-05-13T09:41:50.725Z,101414.41
2018-05-13T09:44:18.691Z,101421.02
2018-05-13T09:46:47.059Z,101410.94
2018-05-13T09:49:14.595Z,101417.69
2018-05-13T09:51:42.133Z,101415.76
2018-05-13T09:54:09.703Z,101414.53
2018-05-13T09:56:37.288Z,101407.38
2018-05-13T09:59:04.976Z,101413.13
2018-05-13T10:01:32.699Z,101414.62
2018-05-13T10:04:00.305Z,101411.68
2018-05-13T10:06:28.430Z,101410.20
2018-05-13T10:08:55.959Z,101409.81
2018-05-13T10:11:23.507Z,101406.55
2018-05-13T10:13:51.933Z,101403.81
2018-05-13T10:16:19.498Z,101412.73
2018-05-13T10:18:47.708Z,101403.16
2018-05-13T10:21:15.271Z,101391.83
2018-05-13T10:23:42.831Z,101390.45
2018-05-13T10:26:10.403Z,101394.56
2018-05-13T10:28:38.673Z,101380.46
2018-05-13T10:31:07.093Z,101378.55
2018-05-13T10:33:35.758Z,101384.56
2018-05-13T10:36:03.299Z,101385.80
2018-05-13T10:38:31.006Z,101379.10
2018-05-13T10:40:58.563Z,101378.22
2018-05-13T10:43:26.995Z,101379.05
2018-05-13T10:45:54.522Z,101385.75
2018-05-13T10:48:22.910Z,101377.13
2018-05-13T10:50:50.446Z,101383.53
2018-05-13T10:53:18.000Z,101387.08
2018-05-13T10:55:45.614Z,101389.37
2018-05-13T10:58:13.142Z,101385.98
2018-05-13T11:00:40.684Z,101387.36
2018-05-13T11:03:08.263Z,101385.19
2018-05-13T11:05:37.307Z,101379.22
2018-05-13T11:08:06.554Z,101373.61
2018-05-13T11:10:34.244Z,101375.50
2018-05-13T11:13:01.807Z,101368.20
2018-05-13T11:15:30.170Z,101368.45
2018-05-13T11:17:58.354Z,101366.52
2018-05-13T11:20:25.910Z,101367.84
2018-05-13T11:22:53.454Z,101361.34
2018-05-13T11:25:21.034Z,101361.06
2018-05-13T11:27:49.706Z,101361.05
2018-05-13T11:30:17.234Z,101361.14
2018-05-13T11:32:44.798Z,101361.69
2018-05-13T11:35:13.123Z,101356.88
2018-05-13T11:37:40.655Z,101352.98
2018-05-13T11:40:08.296Z,101347.92
2018-05-13T11:42:35.998Z,101353.53
2018-05-13T11:45:04.479Z,101359.32
2018-05-13T11:47:32.780Z,101356.88
2018-05-13T11:50:00.320Z,101363.01
2018-05-13T11:52:27.865Z,101355.34
2018-05-13T11:54:55.424Z,101355.19
2018-05-13T11:57:22.971Z,101355.55
2018-05-13T11:59:50.502Z,101349.30
2018-05-13T12:02:18.093Z,101348.09
2018-05-13T12:04:46.240Z,101345.37
2018-05-13T12:07:13.793Z,101348.52
2018-05-13T12:09:41.330Z,101348.52
2018-05-13T12:12:09.474Z,101339.45
2018-05-13T12:14:37.636Z,101346.95
2018-05-13T12:17:05.787Z,101336.94
2018-05-13T12:19:33.801Z,101341.33
2018-05-13T12:22:01.384Z,101343.41
2018-05-13T12:24:28.919Z,101340.91
2018-05-13T12:26:57.453Z,101333.36
2018-05-13T12:29:24.978Z,101331.37
2018-05-13T12:31:52.541Z,101341.66
2018-05-13T12:34:20.794Z,101343.57
2018-05-13T12:36:48.326Z,101334.59
2018-05-13T12:39:16.527Z,101328.80
2018-05-13T12:41:44.064Z,101323.20
2018-05-13T12:44:11.601Z,101319.84
2018-05-13T12:46:39.978Z,101312.50
2018-05-13T12:49:08.188Z,101322.30
2018-05-13T12:51:36.021Z,101314.69
2018-05-13T12:54:04.030Z,101303.50
2018-05-13T12:56:31.640Z,101316.29
2018-05-13T12:58:59.181Z,101315.51
2018-05-13T13:01:26.716Z,101320.40
2018-05-13T13:03:54.425Z,101320.38
2018-05-13T13:06:22.587Z,101314.88
2018-05-13T13:08:50.165Z,101308.18
2018-05-13T13:11:18.511Z,101316.39
2018-05-13T13:13:46.068Z,101315.66
2018-05-13T13:16:14.219Z,101313.38
2018-05-13T13:18:42.216Z,101315.86
2018-05-13T13:21:09.806Z,101310.19
2018-05-13T13:23:37.358Z,101312.82
2018-05-13T13:26:05.068Z,101310.81
2018-05-13T13:28:34.677Z,101311.52
2018-05-13T13:31:02.241Z,101313.77
2018-05-13T13:33:30.515Z,101305.27
2018-05-13T13:35:58.642Z,101301.09
2018-05-13T13:38:27.963Z,101302.38
2018-05-13T13:40:55.507Z,101300.08
2018-05-13T13:43:23.057Z,101296.52
2018-05-13T13:45:50.622Z,101296.38
2018-05-13T13:48:18.642Z,101303.63
2018-05-13T13:50:46.178Z,101305.69
2018-05-13T13:53:13.751Z,101297.34
2018-05-13T13:55:41.314Z,101297.75
2018-05-13T13:58:08.875Z,101301.50
2018-05-13T14:00:36.894Z,101290.48
2018-05-13T14:03:04.924Z,101296.56
2018-05-13T14:05:33.189Z,101292.91
2018-05-13T14:08:01.523Z,101295.80
2018-05-13T14:10:29.047Z,101298.26
2018-05-13T14:12:56.586Z,101296.16
2018-05-13T14:15:24.705Z,101294.07
2018-05-13T14:17:52.834Z,101294.20
2018-05-13T14:20:20.409Z,101295.03
2018-05-13T14:22:47.953Z,101294.75
2018-05-13T14:25:15.562Z,101298.05
2018-05-13T14:27:44.506Z,101300.14
2018-05-13T14:30:12.294Z,101300.25
2018-05-13T14:32:40.664Z,101293.97
2018-05-13T14:35:08.899Z,101291.29
2018-05-13T14:37:36.624Z,101295.14
2018-05-13T14:40:04.457Z,101297.89
2018-05-13T14:42:32.065Z,101292.42
2018-05-13T14:44:59.620Z,101296.44
2018-05-13T14:47:27.701Z,101299.12
2018-05-13T14:49:55.269Z,101301.16
2018-05-13T14:52:22.852Z,101298.27
2018-05-13T14:54:50.418Z,101298.16
2018-05-13T14:57:18.708Z,101296.80
2018-05-13T14:59:46.262Z,101292.95
2018-05-13T15:02:14.515Z,101296.80
2018-05-13T15:04:42.608Z,101295.42
2018-05-13T15:07:10.635Z,101298.84
2018-05-13T15:09:38.177Z,101295.24
2018-05-13T15:12:06.278Z,101294.70
2018-05-13T15:14:34.657Z,101300.61
2018-05-13T15:17:02.193Z,101299.25
2018-05-13T15:19:30.291Z,101300.61
2018-05-13T15:21:57.904Z,101295.73
2018-05-13T15:24:25.434Z,101299.03
2018-05-13T15:26:53.871Z,101294.34
2018-05-13T15:29:21.423Z,101287.06
2018-05-13T15:31:48.959Z,101290.55
2018-05-13T15:34:16.900Z,101288.12
2018-05-13T15:36:44.447Z,101289.64
2018-05-13T15:39:11.980Z,101287.93
2018-05-13T15:41:39.548Z,101287.77
2018-05-13T15:44:07.641Z,101279.44
2018-05-13T15:46:36.133Z,101281.09
2018-05-13T15:49:04.707Z,101285.87
2018-05-13T15:51:32.237Z,101281.44
2018-05-13T15:53:59.802Z,101282.44
2018-05-13T15:56:27.396Z,101287.27
2018-05-13T15:58:54.957Z,101291.03
2018-05-13T16:01:22.968Z,101284.61
2018-05-13T16:03:51.167Z,101287.77
2018-05-13T16:06:19.763Z,101288.30
2018-05-13T16:08:47.322Z,101281.39
2018-05-13T16:11:15.235Z,101286.33
2018-05-13T16:13:42.768Z,101284.79
2018-05-13T16:16:10.854Z,101288.86
2018-05-13T16:18:39.298Z,101285.45
2018-05-13T16:21:06.956Z,101285.11
2018-05-13T16:23:34.536Z,101286.58
2018-05-13T16:26:02.201Z,101294.75
2018-05-13T16:28:30.660Z,101277.98
2018-05-13T16:30:58.219Z,101284.06
2018-05-13T16:33:26.862Z,101282.30
2018-05-13T16:35:54.367Z,101279.86
2018-05-13T16:38:21.920Z,101282.48
2018-05-13T16:40:49.479Z,101277.11
2018-05-13T16:43:17.477Z,101276.56
2018-05-13T16:45:45.032Z,101281.20
2018-05-13T16:48:14.054Z,101283.18
2018-05-13T16:50:41.604Z,101278.97
2018-05-13T16:53:09.191Z,101289.41
2018-05-13T16:55:36.977Z,101287.30
2018-05-13T16:58:04.536Z,101287.89
2018-05-13T17:00:32.853Z,101292.19
2018-05-13T17:03:00.872Z,101290.80
2018-05-13T17:05:29.315Z,101291.57
2018-05-13T17:07:56.851Z,101293.04
2018-05-13T17:10:24.387Z,101291.06
2018-05-13T17:12:51.959Z,101289.73
2018-05-13T17:15:20.475Z,101287.57
2018-05-13T17:17:48.454Z,101294.33
2018-05-13T17:20:16.008Z,101296.71
2018-05-13T17:22:43.543Z,101303.88
2018-05-13T17:25:11.180Z,101288.63
2018-05-13T17:27:39.462Z,101295.96
2018-05-13T17:30:09.155Z,101296.98
2018-05-13T17:32:41.128Z,101296.81
2018-05-13T17:35:09.549Z,101300.61
2018-05-13T17:37:37.521Z,101291.95
2018-05-13T17:40:05.062Z,101299.31
2018-05-13T17:42:32.637Z,101302.63
2018-05-13T17:45:00.707Z,101299.84
2018-05-13T17:47:28.725Z,101299.61
2018-05-13T17:49:56.306Z,101299.33
2018-05-13T17:52:23.839Z,101301.30
2018-05-13T17:54:51.452Z,101308.05
2018-05-13T17:57:19.081Z,101310.02
2018-05-13T17:59:47.207Z,101315.39
2018-05-13T18:02:15.258Z,101316.98
2018-05-13T18:04:43.481Z,101321.27
2018-05-13T18:07:11.079Z,101335.20
2018-05-13T18:09:39.264Z,101329.53
2018-05-13T18:12:06.848Z,101335.81
2018-05-13T18:14:34.891Z,101337.67
2018-05-13T18:17:02.616Z,101334.41
2018-05-13T18:19:30.675Z,101335.41
2018-05-13T18:21:58.208Z,101332.89
2018-05-13T18:24:25.839Z,101326.78
2018-05-13T18:26:54.117Z,101333.93
2018-05-13T18:29:21.661Z,101332.79
2018-05-13T18:31:49.224Z,101338.93
2018-05-13T18:34:17.295Z,101340.73
2018-05-13T18:36:45.322Z,101341.84
2018-05-13T18:39:12.953Z,101335.94
2018-05-13T18:41:41.026Z,101337.50
2018-05-13T18:44:09.208Z,101333.92
2018-05-13T18:46:40.016Z,101328.95
2018-05-13T18:49:08.531Z,101333.23
2018-05-13T18:51:36.288Z,101339.58
2018-05-13T18:54:03.898Z,101337.92
2018-05-13T18:56:32.176Z,101340.05
2018-05-13T18:58:59.798Z,101337.64
2018-05-13T19:01:28.086Z,101338.27
2018-05-13T19:03:55.624Z,101339.30
2018-05-13T19:06:23.928Z,101341.98
2018-05-13T19:08:51.485Z,101343.39
2018-05-13T19:11:19.041Z,101349.48
2018-05-13T19:13:46.603Z,101349.59
2018-05-13T19:16:14.700Z,101356.31
2018-05-13T19:18:42.867Z,101356.11
2018-05-13T19:21:10.404Z,101357.12
2018-05-13T19:23:38.838Z,101362.70
2018-05-13T19:26:06.618Z,101367.67
2018-05-13T19:28:35.392Z,101361.02
2018-05-13T19:31:02.955Z,101363.81
2018-05-13T19:33:31.192Z,101360.66
2018-05-13T19:35:59.580Z,101362.12
2018-05-13T19:38:27.392Z,101361.47
2018-05-13T19:40:54.952Z,101370.13
2018-05-13T19:43:23.021Z,101371.22
2018-05-13T19:45:50.544Z,101367.96
2018-05-13T19:48:19.296Z,101379.73
2018-05-13T19:50:46.835Z,101380.63
2018-05-13T19:53:15.199Z,101382.00
2018-05-13T19:55:42.747Z,101390.26
2018-05-13T19:58:10.279Z,101392.44
2018-05-13T20:00:38.228Z,101394.84
2018-05-13T20:03:07.544Z,101400.02
2018-05-13T20:05:35.959Z,101391.26
2018-05-13T20:08:03.517Z,101403.50
2018-05-13T20:10:31.079Z,101397.67
2018-05-13T20:12:58.650Z,101392.67
2018-05-13T20:15:26.894Z,101401.25
2018-05-13T20:17:55.119Z,101397.67
2018-05-13T20:20:22.643Z,101394.65
2018-05-13T20:23:02.064Z,101401.91
2018-05-13T20:25:29.608Z,101406.06
2018-05-13T20:27:57.883Z,101406.47
2018-05-13T20:30:25.470Z,101409.38
2018-05-13T20:32:53.001Z,101408.20
2018-05-13T20:35:21.339Z,101410.78
2018-05-13T20:37:48.871Z,101415.64
2018-05-13T20:40:16.407Z,101410.75
2018-05-13T20:42:43.959Z,101410.73
2018-05-13T20:45:12.105Z,101418.56
2018-05-13T20:47:40.120Z,101418.42
2018-05-13T20:50:07.909Z,101416.90
2018-05-13T20:52:35.968Z,101420.20
2018-05-13T20:55:03.542Z,101418.89
2018-05-13T20:57:31.083Z,101421.49
2018-05-13T20:59:58.651Z,101417.44
2018-05-13T21:02:26.531Z,101412.94
2018-05-13T21:04:54.716Z,101411.11
2018-05-13T21:07:22.284Z,101412.43
2018-05-13T21:09:49.813Z,101408.65
2018-05-13T21:12:17.403Z,101412.00
2018-05-13T21:14:45.612Z,101414.70
2018-05-13T21:17:13.154Z,101417.36
2018-05-13T21:19:41.807Z,101412.27
2018-05-13T21:22:09.388Z,101418.55
2018-05-13T21:24:37.136Z,101421.80
2018-05-13T21:27:05.313Z,101415.61
2018-05-13T21:29:32.861Z,101417.91
2018-05-13T21:32:00.395Z,101423.87
2018-05-13T21:34:28.688Z,101420.27
2018-05-13T21:36:56.949Z,101425.88
2018-05-13T21:39:24.488Z,101425.72
2018-05-13T21:41:52.031Z,101423.64
2018-05-13T21:44:19.851Z,101425.64
2018-05-13T21:46:48.262Z,101425.53
2018-05-13T21:49:16.208Z,101425.98
2018-05-13T21:51:43.738Z,101429.81
2018-05-13T21:54:11.272Z,101427.11
2018-05-13T21:56:38.879Z,101430.05
2018-05-13T21:59:06.451Z,101426.99
2018-05-13T22:01:34.860Z,101426.70
2018-05-13T22:04:02.404Z,101429.70
2018-05-13T22:06:30.762Z,101431.24
2018-05-13T22:08:58.301Z,101431.56
2018-05-13T22:11:25.956Z,101423.48
2018-05-13T22:13:54.616Z,101429.16
2018-05-13T22:16:22.157Z,101437.56
2018-05-13T22:18:50.174Z,101437.03
2018-05-13T22:21:17.706Z,101434.23
2018-05-13T22:23:45.232Z,101433.37
2018-05-13T22:26:12.798Z,101429.44
2018-05-13T22:28:41.234Z,101437.17
2018-05-13T22:31:08.878Z,101433.55
2018-05-13T22:33:37.562Z,101432.16
2018-05-13T22:36:06.030Z,101434.11
2018-05-13T22:38:33.555Z,101430.96
2018-05-13T22:41:01.094Z,101432.17
2018-05-13T22:43:29.331Z,101441.87
2018-05-13T22:45:57.443Z,101438.97
2018-05-13T22:48:26.030Z,101438.82
2018-05-13T22:50:53.615Z,101436.94
2018-05-13T22:53:21.183Z,101440.73
2018-05-13T22:55:48.771Z,101447.61
2018-05-13T22:58:16.363Z,101448.92
2018-05-13T23:00:44.992Z,101445.80
2018-05-13T23:03:12.540Z,101445.55
2018-05-13T23:05:41.186Z,101437.83
2018-05-13T23:08:09.035Z,101439.37
2018-05-13T23:10:36.580Z,101438.70
2018-05-13T23:13:04.217Z,101438.25
2018-05-13T23:15:32.339Z,101437.16
2018-05-13T23:18:00.531Z,101433.61
2018-05-13T23:20:28.072Z,101437.37
2018-05-13T23:22:55.635Z,101438.36
2018-05-13T23:27:50.933Z,101434.09
2018-05-13T23:30:18.475Z,101442.50
2018-05-13T23:32:46.018Z,101437.69
2018-05-13T23:35:14.181Z,101437.45
2018-05-13T23:37:41.723Z,101443.30
2018-05-13T23:40:09.289Z,101439.41
2018-05-13T23:42:37.040Z,101438.44
2018-05-13T23:45:05.299Z,101441.36
2018-05-13T23:47:33.560Z,101441.82
2018-05-13T23:50:01.689Z,101452.80
2018-05-13T23:52:29.227Z,101449.55
2018-05-13T23:54:56.759Z,101446.16
2018-05-13T23:57:24.348Z,101448.89
2018-05-13T23:59:51.918Z,101447.22
